<?xml version="1.0" encoding="UTF-8" standalone="no" ?>
<gpx xmlns="http://www.topografix.com/GPX/1/1" xmlns:xsi="http://www.w3.org/2001/XMLSchema-instance" xsi:schemaLocation="http://www.topografix.com/GPX/1/1 http://www.topografix.com/GPX/1/1/gpx.xsd" version="1.1" creator="VisuGPX - https://www.visugpx.com">
  <metadata>
    <name>Agen Moirax Aubiac</name>
    <desc><![CDATA[Circuit un peu technique autour de moirax]]></desc>
  </metadata>
  <trk>
    <name><![CDATA[26-AOU-12 10:42:02 001]]></name>
    <trkseg>
      <trkpt lat="44.18842" lon="0.61456">
        <ele>41.47</ele>
        <time>2012-08-26T05:59:40Z</time>
      </trkpt>
      <trkpt lat="44.18842" lon="0.61456">
        <ele>45.8</ele>
        <time>2012-08-26T05:59:49Z</time>
      </trkpt>
      <trkpt lat="44.18843" lon="0.61456">
        <ele>43.88</ele>
        <time>2012-08-26T05:59:50Z</time>
      </trkpt>
      <trkpt lat="44.18843" lon="0.61456">
        <ele>42.92</ele>
        <time>2012-08-26T05:59:52Z</time>
      </trkpt>
      <trkpt lat="44.18839" lon="0.61458">
        <ele>43.4</ele>
        <time>2012-08-26T06:00:01Z</time>
      </trkpt>
      <trkpt lat="44.18842" lon="0.61446">
        <ele>44.84</ele>
        <time>2012-08-26T06:00:08Z</time>
      </trkpt>
      <trkpt lat="44.18867" lon="0.61442">
        <ele>45.8</ele>
        <time>2012-08-26T06:00:18Z</time>
      </trkpt>
      <trkpt lat="44.18874" lon="0.61419">
        <ele>46.28</ele>
        <time>2012-08-26T06:00:24Z</time>
      </trkpt>
      <trkpt lat="44.18872" lon="0.61349">
        <ele>46.76</ele>
        <time>2012-08-26T06:00:40Z</time>
      </trkpt>
      <trkpt lat="44.18995" lon="0.6133">
        <ele>47.24</ele>
        <time>2012-08-26T06:01:21Z</time>
      </trkpt>
      <trkpt lat="44.19019" lon="0.61287">
        <ele>47.24</ele>
        <time>2012-08-26T06:01:39Z</time>
      </trkpt>
      <trkpt lat="44.19013" lon="0.6126">
        <ele>45.8</ele>
        <time>2012-08-26T06:01:48Z</time>
      </trkpt>
      <trkpt lat="44.18703" lon="0.61304">
        <ele>41.47</ele>
        <time>2012-08-26T06:02:54Z</time>
      </trkpt>
      <trkpt lat="44.18308" lon="0.614">
        <ele>42.92</ele>
        <time>2012-08-26T06:04:30Z</time>
      </trkpt>
      <trkpt lat="44.18253" lon="0.61413">
        <ele>42.44</ele>
        <time>2012-08-26T06:04:43Z</time>
      </trkpt>
      <trkpt lat="44.17843" lon="0.61554">
        <ele>44.36</ele>
        <time>2012-08-26T06:06:32Z</time>
      </trkpt>
      <trkpt lat="44.17638" lon="0.61582">
        <ele>45.32</ele>
        <time>2012-08-26T06:07:26Z</time>
      </trkpt>
      <trkpt lat="44.1746" lon="0.61586">
        <ele>44.84</ele>
        <time>2012-08-26T06:08:06Z</time>
      </trkpt>
      <trkpt lat="44.1743" lon="0.61611">
        <ele>44.84</ele>
        <time>2012-08-26T06:08:15Z</time>
      </trkpt>
      <trkpt lat="44.17431" lon="0.61625">
        <ele>45.32</ele>
        <time>2012-08-26T06:08:18Z</time>
      </trkpt>
      <trkpt lat="44.1748" lon="0.61733">
        <ele>45.32</ele>
        <time>2012-08-26T06:08:40Z</time>
      </trkpt>
      <trkpt lat="44.17482" lon="0.61768">
        <ele>46.28</ele>
        <time>2012-08-26T06:08:46Z</time>
      </trkpt>
      <trkpt lat="44.17473" lon="0.61803">
        <ele>45.8</ele>
        <time>2012-08-26T06:08:52Z</time>
      </trkpt>
      <trkpt lat="44.1741" lon="0.6185">
        <ele>45.8</ele>
        <time>2012-08-26T06:09:07Z</time>
      </trkpt>
      <trkpt lat="44.17336" lon="0.61859">
        <ele>45.32</ele>
        <time>2012-08-26T06:09:23Z</time>
      </trkpt>
      <trkpt lat="44.17288" lon="0.61838">
        <ele>45.32</ele>
        <time>2012-08-26T06:09:34Z</time>
      </trkpt>
      <trkpt lat="44.17235" lon="0.61779">
        <ele>46.76</ele>
        <time>2012-08-26T06:09:50Z</time>
      </trkpt>
      <trkpt lat="44.17191" lon="0.61622">
        <ele>52.05</ele>
        <time>2012-08-26T06:10:24Z</time>
      </trkpt>
      <trkpt lat="44.17158" lon="0.61443">
        <ele>56.86</ele>
        <time>2012-08-26T06:11:02Z</time>
      </trkpt>
      <trkpt lat="44.17127" lon="0.6128">
        <ele>59.26</ele>
        <time>2012-08-26T06:11:39Z</time>
      </trkpt>
      <trkpt lat="44.17111" lon="0.61281">
        <ele>61.18</ele>
        <time>2012-08-26T06:12:27Z</time>
      </trkpt>
      <trkpt lat="44.17027" lon="0.61032">
        <ele>61.66</ele>
        <time>2012-08-26T06:13:28Z</time>
      </trkpt>
      <trkpt lat="44.16967" lon="0.60938">
        <ele>61.66</ele>
        <time>2012-08-26T06:13:53Z</time>
      </trkpt>
      <trkpt lat="44.16934" lon="0.60927">
        <ele>61.66</ele>
        <time>2012-08-26T06:14:02Z</time>
      </trkpt>
      <trkpt lat="44.16852" lon="0.60954">
        <ele>62.14</ele>
        <time>2012-08-26T06:14:23Z</time>
      </trkpt>
      <trkpt lat="44.1683" lon="0.60945">
        <ele>62.62</ele>
        <time>2012-08-26T06:14:29Z</time>
      </trkpt>
      <trkpt lat="44.16827" lon="0.60945">
        <ele>62.14</ele>
        <time>2012-08-26T06:14:30Z</time>
      </trkpt>
      <trkpt lat="44.1655" lon="0.6105">
        <ele>62.62</ele>
        <time>2012-08-26T06:15:43Z</time>
      </trkpt>
      <trkpt lat="44.16511" lon="0.61031">
        <ele>63.1</ele>
        <time>2012-08-26T06:15:56Z</time>
      </trkpt>
      <trkpt lat="44.16491" lon="0.60961">
        <ele>64.55</ele>
        <time>2012-08-26T06:16:11Z</time>
      </trkpt>
      <trkpt lat="44.16349" lon="0.60928">
        <ele>66.95</ele>
        <time>2012-08-26T06:16:47Z</time>
      </trkpt>
      <trkpt lat="44.16181" lon="0.6089">
        <ele>64.55</ele>
        <time>2012-08-26T06:17:23Z</time>
      </trkpt>
      <trkpt lat="44.16099" lon="0.60853">
        <ele>63.58</ele>
        <time>2012-08-26T06:17:37Z</time>
      </trkpt>
      <trkpt lat="44.16072" lon="0.60818">
        <ele>63.58</ele>
        <time>2012-08-26T06:17:44Z</time>
      </trkpt>
      <trkpt lat="44.16039" lon="0.6072">
        <ele>67.43</ele>
        <time>2012-08-26T06:18:03Z</time>
      </trkpt>
      <trkpt lat="44.16034" lon="0.60643">
        <ele>70.31</ele>
        <time>2012-08-26T06:18:19Z</time>
      </trkpt>
      <trkpt lat="44.16029" lon="0.6061">
        <ele>72.24</ele>
        <time>2012-08-26T06:18:27Z</time>
      </trkpt>
      <trkpt lat="44.15978" lon="0.60671">
        <ele>66.95</ele>
        <time>2012-08-26T06:18:41Z</time>
      </trkpt>
      <trkpt lat="44.15958" lon="0.60699">
        <ele>64.07</ele>
        <time>2012-08-26T06:18:45Z</time>
      </trkpt>
      <trkpt lat="44.15952" lon="0.60749">
        <ele>62.62</ele>
        <time>2012-08-26T06:18:51Z</time>
      </trkpt>
      <trkpt lat="44.15949" lon="0.60764">
        <ele>61.66</ele>
        <time>2012-08-26T06:18:53Z</time>
      </trkpt>
      <trkpt lat="44.15937" lon="0.60798">
        <ele>53.49</ele>
        <time>2012-08-26T06:18:59Z</time>
      </trkpt>
      <trkpt lat="44.15922" lon="0.60778">
        <ele>51.09</ele>
        <time>2012-08-26T06:19:54Z</time>
      </trkpt>
      <trkpt lat="44.15904" lon="0.60782">
        <ele>51.09</ele>
        <time>2012-08-26T06:20:05Z</time>
      </trkpt>
      <trkpt lat="44.1588" lon="0.60811">
        <ele>53.01</ele>
        <time>2012-08-26T06:20:19Z</time>
      </trkpt>
      <trkpt lat="44.15895" lon="0.60855">
        <ele>52.05</ele>
        <time>2012-08-26T06:20:33Z</time>
      </trkpt>
      <trkpt lat="44.15935" lon="0.60869">
        <ele>50.13</ele>
        <time>2012-08-26T06:20:48Z</time>
      </trkpt>
      <trkpt lat="44.15943" lon="0.60896">
        <ele>50.61</ele>
        <time>2012-08-26T06:20:56Z</time>
      </trkpt>
      <trkpt lat="44.15948" lon="0.6092">
        <ele>50.13</ele>
        <time>2012-08-26T06:21:03Z</time>
      </trkpt>
      <trkpt lat="44.15954" lon="0.60931">
        <ele>48.2</ele>
        <time>2012-08-26T06:21:06Z</time>
      </trkpt>
      <trkpt lat="44.16004" lon="0.6097">
        <ele>51.57</ele>
        <time>2012-08-26T06:21:26Z</time>
      </trkpt>
      <trkpt lat="44.16013" lon="0.60994">
        <ele>54.45</ele>
        <time>2012-08-26T06:21:39Z</time>
      </trkpt>
      <trkpt lat="44.16032" lon="0.61012">
        <ele>56.37</ele>
        <time>2012-08-26T06:21:47Z</time>
      </trkpt>
      <trkpt lat="44.16035" lon="0.61077">
        <ele>63.1</ele>
        <time>2012-08-26T06:22:18Z</time>
      </trkpt>
      <trkpt lat="44.16066" lon="0.61105">
        <ele>63.58</ele>
        <time>2012-08-26T06:22:38Z</time>
      </trkpt>
      <trkpt lat="44.16068" lon="0.61123">
        <ele>65.99</ele>
        <time>2012-08-26T06:22:47Z</time>
      </trkpt>
      <trkpt lat="44.16034" lon="0.6123">
        <ele>70.31</ele>
        <time>2012-08-26T06:23:31Z</time>
      </trkpt>
      <trkpt lat="44.16035" lon="0.61283">
        <ele>71.27</ele>
        <time>2012-08-26T06:23:46Z</time>
      </trkpt>
      <trkpt lat="44.16005" lon="0.61306">
        <ele>73.68</ele>
        <time>2012-08-26T06:24:00Z</time>
      </trkpt>
      <trkpt lat="44.1595" lon="0.61421">
        <ele>75.12</ele>
        <time>2012-08-26T06:24:34Z</time>
      </trkpt>
      <trkpt lat="44.15918" lon="0.61484">
        <ele>75.6</ele>
        <time>2012-08-26T06:24:49Z</time>
      </trkpt>
      <trkpt lat="44.15802" lon="0.61671">
        <ele>74.16</ele>
        <time>2012-08-26T06:25:27Z</time>
      </trkpt>
      <trkpt lat="44.15723" lon="0.61756">
        <ele>74.64</ele>
        <time>2012-08-26T06:25:49Z</time>
      </trkpt>
      <trkpt lat="44.15706" lon="0.61772">
        <ele>75.6</ele>
        <time>2012-08-26T06:25:54Z</time>
      </trkpt>
      <trkpt lat="44.15743" lon="0.61858">
        <ele>73.68</ele>
        <time>2012-08-26T06:26:09Z</time>
      </trkpt>
      <trkpt lat="44.15733" lon="0.61885">
        <ele>74.16</ele>
        <time>2012-08-26T06:26:14Z</time>
      </trkpt>
      <trkpt lat="44.15675" lon="0.61934">
        <ele>75.12</ele>
        <time>2012-08-26T06:26:30Z</time>
      </trkpt>
      <trkpt lat="44.15615" lon="0.61982">
        <ele>75.6</ele>
        <time>2012-08-26T06:26:48Z</time>
      </trkpt>
      <trkpt lat="44.15593" lon="0.62032">
        <ele>72.72</ele>
        <time>2012-08-26T06:26:57Z</time>
      </trkpt>
      <trkpt lat="44.15582" lon="0.62055">
        <ele>72.24</ele>
        <time>2012-08-26T06:27:01Z</time>
      </trkpt>
      <trkpt lat="44.15548" lon="0.62065">
        <ele>71.27</ele>
        <time>2012-08-26T06:27:08Z</time>
      </trkpt>
      <trkpt lat="44.15541" lon="0.6207">
        <ele>72.24</ele>
        <time>2012-08-26T06:27:10Z</time>
      </trkpt>
      <trkpt lat="44.15545" lon="0.62106">
        <ele>71.76</ele>
        <time>2012-08-26T06:27:25Z</time>
      </trkpt>
      <trkpt lat="44.15526" lon="0.62095">
        <ele>70.79</ele>
        <time>2012-08-26T06:27:31Z</time>
      </trkpt>
      <trkpt lat="44.15487" lon="0.6201">
        <ele>73.68</ele>
        <time>2012-08-26T06:27:50Z</time>
      </trkpt>
      <trkpt lat="44.15457" lon="0.61982">
        <ele>74.64</ele>
        <time>2012-08-26T06:28:01Z</time>
      </trkpt>
      <trkpt lat="44.15381" lon="0.61964">
        <ele>75.6</ele>
        <time>2012-08-26T06:28:19Z</time>
      </trkpt>
      <trkpt lat="44.1533" lon="0.61978">
        <ele>75.12</ele>
        <time>2012-08-26T06:28:31Z</time>
      </trkpt>
      <trkpt lat="44.15169" lon="0.62037">
        <ele>70.31</ele>
        <time>2012-08-26T06:29:04Z</time>
      </trkpt>
      <trkpt lat="44.15152" lon="0.61971">
        <ele>69.35</ele>
        <time>2012-08-26T06:29:17Z</time>
      </trkpt>
      <trkpt lat="44.15141" lon="0.61968">
        <ele>65.99</ele>
        <time>2012-08-26T06:29:19Z</time>
      </trkpt>
      <trkpt lat="44.15126" lon="0.61971">
        <ele>64.07</ele>
        <time>2012-08-26T06:29:21Z</time>
      </trkpt>
      <trkpt lat="44.15048" lon="0.61978">
        <ele>74.64</ele>
        <time>2012-08-26T06:29:41Z</time>
      </trkpt>
      <trkpt lat="44.14981" lon="0.61974">
        <ele>79.93</ele>
        <time>2012-08-26T06:30:10Z</time>
      </trkpt>
      <trkpt lat="44.14812" lon="0.62051">
        <ele>82.33</ele>
        <time>2012-08-26T06:31:17Z</time>
      </trkpt>
      <trkpt lat="44.14826" lon="0.62161">
        <ele>73.68</ele>
        <time>2012-08-26T06:31:33Z</time>
      </trkpt>
      <trkpt lat="44.14751" lon="0.62222">
        <ele>64.55</ele>
        <time>2012-08-26T06:31:46Z</time>
      </trkpt>
      <trkpt lat="44.14634" lon="0.62368">
        <ele>57.34</ele>
        <time>2012-08-26T06:32:08Z</time>
      </trkpt>
      <trkpt lat="44.1459" lon="0.62417">
        <ele>53.49</ele>
        <time>2012-08-26T06:32:16Z</time>
      </trkpt>
      <trkpt lat="44.14582" lon="0.6255">
        <ele>67.43</ele>
        <time>2012-08-26T06:33:33Z</time>
      </trkpt>
      <trkpt lat="44.14566" lon="0.62543">
        <ele>69.83</ele>
        <time>2012-08-26T06:34:53Z</time>
      </trkpt>
      <trkpt lat="44.14535" lon="0.6254">
        <ele>69.83</ele>
        <time>2012-08-26T06:35:07Z</time>
      </trkpt>
      <trkpt lat="44.14457" lon="0.62537">
        <ele>73.2</ele>
        <time>2012-08-26T06:35:33Z</time>
      </trkpt>
      <trkpt lat="44.14389" lon="0.62505">
        <ele>66.95</ele>
        <time>2012-08-26T06:35:47Z</time>
      </trkpt>
      <trkpt lat="44.14312" lon="0.62515">
        <ele>68.87</ele>
        <time>2012-08-26T06:36:03Z</time>
      </trkpt>
      <trkpt lat="44.14219" lon="0.62531">
        <ele>65.51</ele>
        <time>2012-08-26T06:36:20Z</time>
      </trkpt>
      <trkpt lat="44.14194" lon="0.62544">
        <ele>62.62</ele>
        <time>2012-08-26T06:36:24Z</time>
      </trkpt>
      <trkpt lat="44.14112" lon="0.62515">
        <ele>58.3</ele>
        <time>2012-08-26T06:36:35Z</time>
      </trkpt>
      <trkpt lat="44.14058" lon="0.62428">
        <ele>61.18</ele>
        <time>2012-08-26T06:36:51Z</time>
      </trkpt>
      <trkpt lat="44.14023" lon="0.62395">
        <ele>62.62</ele>
        <time>2012-08-26T06:37:04Z</time>
      </trkpt>
      <trkpt lat="44.14002" lon="0.62381">
        <ele>62.14</ele>
        <time>2012-08-26T06:37:12Z</time>
      </trkpt>
      <trkpt lat="44.13896" lon="0.62388">
        <ele>65.03</ele>
        <time>2012-08-26T06:37:41Z</time>
      </trkpt>
      <trkpt lat="44.13865" lon="0.62369">
        <ele>65.03</ele>
        <time>2012-08-26T06:37:51Z</time>
      </trkpt>
      <trkpt lat="44.13741" lon="0.62244">
        <ele>65.51</ele>
        <time>2012-08-26T06:38:33Z</time>
      </trkpt>
      <trkpt lat="44.13661" lon="0.62195">
        <ele>66.47</ele>
        <time>2012-08-26T06:38:56Z</time>
      </trkpt>
      <trkpt lat="44.13614" lon="0.62183">
        <ele>65.99</ele>
        <time>2012-08-26T06:39:06Z</time>
      </trkpt>
      <trkpt lat="44.135" lon="0.62259">
        <ele>69.35</ele>
        <time>2012-08-26T06:39:54Z</time>
      </trkpt>
      <trkpt lat="44.13416" lon="0.62356">
        <ele>71.76</ele>
        <time>2012-08-26T06:40:29Z</time>
      </trkpt>
      <trkpt lat="44.13311" lon="0.62447">
        <ele>78</ele>
        <time>2012-08-26T06:41:14Z</time>
      </trkpt>
      <trkpt lat="44.1322" lon="0.62398">
        <ele>85.21</ele>
        <time>2012-08-26T06:42:01Z</time>
      </trkpt>
      <trkpt lat="44.13054" lon="0.62327">
        <ele>82.81</ele>
        <time>2012-08-26T06:42:57Z</time>
      </trkpt>
      <trkpt lat="44.13019" lon="0.62253">
        <ele>87.14</ele>
        <time>2012-08-26T06:43:21Z</time>
      </trkpt>
      <trkpt lat="44.12977" lon="0.62044">
        <ele>110.69</ele>
        <time>2012-08-26T06:45:17Z</time>
      </trkpt>
      <trkpt lat="44.12942" lon="0.61988">
        <ele>118.86</ele>
        <time>2012-08-26T06:46:35Z</time>
      </trkpt>
      <trkpt lat="44.12913" lon="0.61981">
        <ele>116.94</ele>
        <time>2012-08-26T06:46:45Z</time>
      </trkpt>
      <trkpt lat="44.12834" lon="0.61942">
        <ele>115.5</ele>
        <time>2012-08-26T06:47:05Z</time>
      </trkpt>
      <trkpt lat="44.12847" lon="0.61858">
        <ele>124.15</ele>
        <time>2012-08-26T06:47:34Z</time>
      </trkpt>
      <trkpt lat="44.12883" lon="0.61726">
        <ele>122.22</ele>
        <time>2012-08-26T06:48:07Z</time>
      </trkpt>
      <trkpt lat="44.12858" lon="0.61598">
        <ele>127.99</ele>
        <time>2012-08-26T06:48:47Z</time>
      </trkpt>
      <trkpt lat="44.12857" lon="0.61597">
        <ele>127.99</ele>
        <time>2012-08-26T06:48:59Z</time>
      </trkpt>
      <trkpt lat="44.12857" lon="0.61597">
        <ele>128.47</ele>
        <time>2012-08-26T06:49:04Z</time>
      </trkpt>
      <trkpt lat="44.12857" lon="0.61597">
        <ele>131.84</ele>
        <time>2012-08-26T06:49:06Z</time>
      </trkpt>
      <trkpt lat="44.12857" lon="0.61597">
        <ele>128.47</ele>
        <time>2012-08-26T06:49:07Z</time>
      </trkpt>
      <trkpt lat="44.12857" lon="0.61597">
        <ele>120.3</ele>
        <time>2012-08-26T06:49:16Z</time>
      </trkpt>
      <trkpt lat="44.12857" lon="0.61597">
        <ele>129.92</ele>
        <time>2012-08-26T06:49:17Z</time>
      </trkpt>
      <trkpt lat="44.12857" lon="0.61597">
        <ele>125.59</ele>
        <time>2012-08-26T06:49:20Z</time>
      </trkpt>
      <trkpt lat="44.12858" lon="0.61597">
        <ele>132.32</ele>
        <time>2012-08-26T06:49:24Z</time>
      </trkpt>
      <trkpt lat="44.12848" lon="0.61251">
        <ele>140.49</ele>
        <time>2012-08-26T06:51:42Z</time>
      </trkpt>
      <trkpt lat="44.12836" lon="0.61199">
        <ele>140.97</ele>
        <time>2012-08-26T06:51:55Z</time>
      </trkpt>
      <trkpt lat="44.12785" lon="0.61128">
        <ele>136.64</ele>
        <time>2012-08-26T06:52:23Z</time>
      </trkpt>
      <trkpt lat="44.12782" lon="0.61126">
        <ele>135.68</ele>
        <time>2012-08-26T06:52:27Z</time>
      </trkpt>
      <trkpt lat="44.12771" lon="0.61093">
        <ele>131.84</ele>
        <time>2012-08-26T06:52:36Z</time>
      </trkpt>
      <trkpt lat="44.12765" lon="0.61075">
        <ele>128.95</ele>
        <time>2012-08-26T06:52:38Z</time>
      </trkpt>
      <trkpt lat="44.1276" lon="0.61056">
        <ele>127.03</ele>
        <time>2012-08-26T06:52:40Z</time>
      </trkpt>
      <trkpt lat="44.12742" lon="0.61005">
        <ele>123.19</ele>
        <time>2012-08-26T06:52:46Z</time>
      </trkpt>
      <trkpt lat="44.12699" lon="0.60959">
        <ele>119.34</ele>
        <time>2012-08-26T06:52:54Z</time>
      </trkpt>
      <trkpt lat="44.12674" lon="0.60943">
        <ele>115.01</ele>
        <time>2012-08-26T06:52:57Z</time>
      </trkpt>
      <trkpt lat="44.12656" lon="0.60934">
        <ele>112.61</ele>
        <time>2012-08-26T06:52:59Z</time>
      </trkpt>
      <trkpt lat="44.12645" lon="0.60908">
        <ele>111.17</ele>
        <time>2012-08-26T06:53:03Z</time>
      </trkpt>
      <trkpt lat="44.12664" lon="0.60731">
        <ele>106.36</ele>
        <time>2012-08-26T06:53:24Z</time>
      </trkpt>
      <trkpt lat="44.12637" lon="0.6069">
        <ele>106.84</ele>
        <time>2012-08-26T06:53:37Z</time>
      </trkpt>
      <trkpt lat="44.12534" lon="0.60622">
        <ele>105.4</ele>
        <time>2012-08-26T06:54:09Z</time>
      </trkpt>
      <trkpt lat="44.12493" lon="0.60578">
        <ele>103.48</ele>
        <time>2012-08-26T06:54:22Z</time>
      </trkpt>
      <trkpt lat="44.12507" lon="0.60546">
        <ele>95.79</ele>
        <time>2012-08-26T06:54:41Z</time>
      </trkpt>
      <trkpt lat="44.12497" lon="0.60524">
        <ele>91.94</ele>
        <time>2012-08-26T06:54:46Z</time>
      </trkpt>
      <trkpt lat="44.12479" lon="0.6051">
        <ele>90.02</ele>
        <time>2012-08-26T06:54:52Z</time>
      </trkpt>
      <trkpt lat="44.12401" lon="0.60537">
        <ele>93.39</ele>
        <time>2012-08-26T06:55:23Z</time>
      </trkpt>
      <trkpt lat="44.12398" lon="0.60534">
        <ele>92.9</ele>
        <time>2012-08-26T06:55:24Z</time>
      </trkpt>
      <trkpt lat="44.12387" lon="0.60527">
        <ele>90.02</ele>
        <time>2012-08-26T06:55:26Z</time>
      </trkpt>
      <trkpt lat="44.12335" lon="0.60512">
        <ele>90.5</ele>
        <time>2012-08-26T06:55:39Z</time>
      </trkpt>
      <trkpt lat="44.12334" lon="0.60507">
        <ele>90.02</ele>
        <time>2012-08-26T06:55:40Z</time>
      </trkpt>
      <trkpt lat="44.12335" lon="0.60441">
        <ele>92.42</ele>
        <time>2012-08-26T06:56:22Z</time>
      </trkpt>
      <trkpt lat="44.12342" lon="0.60414">
        <ele>102.04</ele>
        <time>2012-08-26T06:58:04Z</time>
      </trkpt>
      <trkpt lat="44.1235" lon="0.60407">
        <ele>103</ele>
        <time>2012-08-26T06:58:16Z</time>
      </trkpt>
      <trkpt lat="44.12363" lon="0.60395">
        <ele>105.88</ele>
        <time>2012-08-26T06:58:28Z</time>
      </trkpt>
      <trkpt lat="44.12363" lon="0.60391">
        <ele>106.36</ele>
        <time>2012-08-26T06:58:30Z</time>
      </trkpt>
      <trkpt lat="44.12391" lon="0.60284">
        <ele>112.61</ele>
        <time>2012-08-26T06:59:18Z</time>
      </trkpt>
      <trkpt lat="44.12405" lon="0.60278">
        <ele>112.61</ele>
        <time>2012-08-26T06:59:25Z</time>
      </trkpt>
      <trkpt lat="44.12405" lon="0.60245">
        <ele>113.57</ele>
        <time>2012-08-26T06:59:36Z</time>
      </trkpt>
      <trkpt lat="44.12417" lon="0.60171">
        <ele>117.42</ele>
        <time>2012-08-26T07:00:01Z</time>
      </trkpt>
      <trkpt lat="44.12414" lon="0.60107">
        <ele>121.74</ele>
        <time>2012-08-26T07:00:27Z</time>
      </trkpt>
      <trkpt lat="44.1238" lon="0.59966">
        <ele>135.2</ele>
        <time>2012-08-26T07:01:28Z</time>
      </trkpt>
      <trkpt lat="44.12374" lon="0.59932">
        <ele>138.09</ele>
        <time>2012-08-26T07:01:49Z</time>
      </trkpt>
      <trkpt lat="44.12365" lon="0.59917">
        <ele>138.57</ele>
        <time>2012-08-26T07:01:58Z</time>
      </trkpt>
      <trkpt lat="44.12376" lon="0.59878">
        <ele>141.45</ele>
        <time>2012-08-26T07:02:20Z</time>
      </trkpt>
      <trkpt lat="44.12438" lon="0.59774">
        <ele>152.51</ele>
        <time>2012-08-26T07:03:32Z</time>
      </trkpt>
      <trkpt lat="44.12464" lon="0.59756">
        <ele>155.39</ele>
        <time>2012-08-26T07:03:52Z</time>
      </trkpt>
      <trkpt lat="44.12523" lon="0.59736">
        <ele>159.72</ele>
        <time>2012-08-26T07:04:27Z</time>
      </trkpt>
      <trkpt lat="44.12584" lon="0.59747">
        <ele>162.12</ele>
        <time>2012-08-26T07:04:57Z</time>
      </trkpt>
      <trkpt lat="44.12398" lon="0.59645">
        <ele>166.45</ele>
        <time>2012-08-26T07:06:09Z</time>
      </trkpt>
      <trkpt lat="44.12306" lon="0.596">
        <ele>165.96</ele>
        <time>2012-08-26T07:06:38Z</time>
      </trkpt>
      <trkpt lat="44.12155" lon="0.59477">
        <ele>168.37</ele>
        <time>2012-08-26T07:07:26Z</time>
      </trkpt>
      <trkpt lat="44.12112" lon="0.59431">
        <ele>168.37</ele>
        <time>2012-08-26T07:07:41Z</time>
      </trkpt>
      <trkpt lat="44.12047" lon="0.59313">
        <ele>170.29</ele>
        <time>2012-08-26T07:08:12Z</time>
      </trkpt>
      <trkpt lat="44.12028" lon="0.59248">
        <ele>171.25</ele>
        <time>2012-08-26T07:08:27Z</time>
      </trkpt>
      <trkpt lat="44.12017" lon="0.59137">
        <ele>173.17</ele>
        <time>2012-08-26T07:08:51Z</time>
      </trkpt>
      <trkpt lat="44.12013" lon="0.58995">
        <ele>171.73</ele>
        <time>2012-08-26T07:09:16Z</time>
      </trkpt>
      <trkpt lat="44.12009" lon="0.58908">
        <ele>172.21</ele>
        <time>2012-08-26T07:09:31Z</time>
      </trkpt>
      <trkpt lat="44.12047" lon="0.58869">
        <ele>173.66</ele>
        <time>2012-08-26T07:09:52Z</time>
      </trkpt>
      <trkpt lat="44.12068" lon="0.58845">
        <ele>169.81</ele>
        <time>2012-08-26T07:09:58Z</time>
      </trkpt>
      <trkpt lat="44.12093" lon="0.58809">
        <ele>161.64</ele>
        <time>2012-08-26T07:10:03Z</time>
      </trkpt>
      <trkpt lat="44.1214" lon="0.58741">
        <ele>151.54</ele>
        <time>2012-08-26T07:10:12Z</time>
      </trkpt>
      <trkpt lat="44.1218" lon="0.58678">
        <ele>138.57</ele>
        <time>2012-08-26T07:10:25Z</time>
      </trkpt>
      <trkpt lat="44.12222" lon="0.5858">
        <ele>126.07</ele>
        <time>2012-08-26T07:10:39Z</time>
      </trkpt>
      <trkpt lat="44.123" lon="0.58469">
        <ele>115.5</ele>
        <time>2012-08-26T07:10:55Z</time>
      </trkpt>
      <trkpt lat="44.12374" lon="0.58231">
        <ele>100.6</ele>
        <time>2012-08-26T07:11:27Z</time>
      </trkpt>
      <trkpt lat="44.12377" lon="0.58227">
        <ele>99.63</ele>
        <time>2012-08-26T07:11:28Z</time>
      </trkpt>
      <trkpt lat="44.12539" lon="0.58258">
        <ele>107.32</ele>
        <time>2012-08-26T07:20:09Z</time>
      </trkpt>
      <trkpt lat="44.12602" lon="0.58132">
        <ele>116.94</ele>
        <time>2012-08-26T07:21:10Z</time>
      </trkpt>
      <trkpt lat="44.12604" lon="0.58128">
        <ele>122.22</ele>
        <time>2012-08-26T07:24:50Z</time>
      </trkpt>
      <trkpt lat="44.12612" lon="0.58121">
        <ele>115.98</ele>
        <time>2012-08-26T07:26:09Z</time>
      </trkpt>
      <trkpt lat="44.12616" lon="0.58129">
        <ele>115.5</ele>
        <time>2012-08-26T07:26:12Z</time>
      </trkpt>
      <trkpt lat="44.12632" lon="0.58158">
        <ele>112.13</ele>
        <time>2012-08-26T07:26:23Z</time>
      </trkpt>
      <trkpt lat="44.12641" lon="0.58168">
        <ele>111.65</ele>
        <time>2012-08-26T07:26:37Z</time>
      </trkpt>
      <trkpt lat="44.12676" lon="0.58096">
        <ele>114.05</ele>
        <time>2012-08-26T07:27:11Z</time>
      </trkpt>
      <trkpt lat="44.12744" lon="0.58026">
        <ele>119.34</ele>
        <time>2012-08-26T07:27:45Z</time>
      </trkpt>
      <trkpt lat="44.12746" lon="0.58023">
        <ele>119.34</ele>
        <time>2012-08-26T07:27:46Z</time>
      </trkpt>
      <trkpt lat="44.12776" lon="0.57972">
        <ele>123.67</ele>
        <time>2012-08-26T07:28:09Z</time>
      </trkpt>
      <trkpt lat="44.12791" lon="0.57913">
        <ele>126.07</ele>
        <time>2012-08-26T07:28:32Z</time>
      </trkpt>
      <trkpt lat="44.12846" lon="0.57773">
        <ele>134.72</ele>
        <time>2012-08-26T07:29:34Z</time>
      </trkpt>
      <trkpt lat="44.12941" lon="0.57822">
        <ele>143.85</ele>
        <time>2012-08-26T07:30:33Z</time>
      </trkpt>
      <trkpt lat="44.12957" lon="0.57836">
        <ele>142.89</ele>
        <time>2012-08-26T07:30:39Z</time>
      </trkpt>
      <trkpt lat="44.12967" lon="0.57841">
        <ele>140.97</ele>
        <time>2012-08-26T07:30:41Z</time>
      </trkpt>
      <trkpt lat="44.13017" lon="0.57856">
        <ele>138.09</ele>
        <time>2012-08-26T07:30:49Z</time>
      </trkpt>
      <trkpt lat="44.13102" lon="0.57665">
        <ele>156.83</ele>
        <time>2012-08-26T07:32:34Z</time>
      </trkpt>
      <trkpt lat="44.13146" lon="0.57629">
        <ele>163.56</ele>
        <time>2012-08-26T07:33:07Z</time>
      </trkpt>
      <trkpt lat="44.13211" lon="0.57583">
        <ele>171.25</ele>
        <time>2012-08-26T07:33:51Z</time>
      </trkpt>
      <trkpt lat="44.13247" lon="0.57545">
        <ele>173.17</ele>
        <time>2012-08-26T07:34:15Z</time>
      </trkpt>
      <trkpt lat="44.13285" lon="0.57545">
        <ele>175.1</ele>
        <time>2012-08-26T07:34:32Z</time>
      </trkpt>
      <trkpt lat="44.13323" lon="0.57535">
        <ele>173.66</ele>
        <time>2012-08-26T07:34:47Z</time>
      </trkpt>
      <trkpt lat="44.13343" lon="0.57519">
        <ele>172.21</ele>
        <time>2012-08-26T07:34:53Z</time>
      </trkpt>
      <trkpt lat="44.13429" lon="0.57591">
        <ele>169.81</ele>
        <time>2012-08-26T07:35:12Z</time>
      </trkpt>
      <trkpt lat="44.13506" lon="0.57601">
        <ele>168.85</ele>
        <time>2012-08-26T07:35:26Z</time>
      </trkpt>
      <trkpt lat="44.13511" lon="0.576">
        <ele>168.37</ele>
        <time>2012-08-26T07:35:27Z</time>
      </trkpt>
      <trkpt lat="44.13732" lon="0.57424">
        <ele>172.21</ele>
        <time>2012-08-26T07:36:22Z</time>
      </trkpt>
      <trkpt lat="44.13938" lon="0.57326">
        <ele>165.96</ele>
        <time>2012-08-26T07:37:01Z</time>
      </trkpt>
      <trkpt lat="44.14192" lon="0.57077">
        <ele>161.64</ele>
        <time>2012-08-26T07:37:52Z</time>
      </trkpt>
      <trkpt lat="44.14437" lon="0.56919">
        <ele>169.33</ele>
        <time>2012-08-26T07:38:54Z</time>
      </trkpt>
      <trkpt lat="44.14457" lon="0.56892">
        <ele>169.81</ele>
        <time>2012-08-26T07:39:01Z</time>
      </trkpt>
      <trkpt lat="44.14468" lon="0.56911">
        <ele>170.29</ele>
        <time>2012-08-26T07:39:06Z</time>
      </trkpt>
      <trkpt lat="44.14489" lon="0.56925">
        <ele>170.29</ele>
        <time>2012-08-26T07:39:12Z</time>
      </trkpt>
      <trkpt lat="44.14615" lon="0.5695">
        <ele>165</ele>
        <time>2012-08-26T07:39:36Z</time>
      </trkpt>
      <trkpt lat="44.14663" lon="0.56966">
        <ele>159.24</ele>
        <time>2012-08-26T07:39:42Z</time>
      </trkpt>
      <trkpt lat="44.14729" lon="0.56966">
        <ele>152.99</ele>
        <time>2012-08-26T07:39:58Z</time>
      </trkpt>
      <trkpt lat="44.14766" lon="0.56997">
        <ele>146.26</ele>
        <time>2012-08-26T07:40:04Z</time>
      </trkpt>
      <trkpt lat="44.14775" lon="0.57018">
        <ele>144.82</ele>
        <time>2012-08-26T07:40:06Z</time>
      </trkpt>
      <trkpt lat="44.14793" lon="0.57061">
        <ele>141.93</ele>
        <time>2012-08-26T07:40:10Z</time>
      </trkpt>
      <trkpt lat="44.14928" lon="0.57283">
        <ele>134.72</ele>
        <time>2012-08-26T07:40:42Z</time>
      </trkpt>
      <trkpt lat="44.14895" lon="0.57316">
        <ele>138.09</ele>
        <time>2012-08-26T07:41:01Z</time>
      </trkpt>
      <trkpt lat="44.14866" lon="0.57331">
        <ele>138.57</ele>
        <time>2012-08-26T07:41:11Z</time>
      </trkpt>
      <trkpt lat="44.14836" lon="0.57366">
        <ele>134.24</ele>
        <time>2012-08-26T07:41:19Z</time>
      </trkpt>
      <trkpt lat="44.148" lon="0.57405">
        <ele>130.4</ele>
        <time>2012-08-26T07:41:26Z</time>
      </trkpt>
      <trkpt lat="44.14761" lon="0.57499">
        <ele>117.9</ele>
        <time>2012-08-26T07:41:40Z</time>
      </trkpt>
      <trkpt lat="44.14798" lon="0.57535">
        <ele>111.65</ele>
        <time>2012-08-26T07:41:51Z</time>
      </trkpt>
      <trkpt lat="44.14875" lon="0.57554">
        <ele>106.84</ele>
        <time>2012-08-26T07:42:02Z</time>
      </trkpt>
      <trkpt lat="44.14961" lon="0.57632">
        <ele>105.88</ele>
        <time>2012-08-26T07:42:19Z</time>
      </trkpt>
      <trkpt lat="44.14974" lon="0.57651">
        <ele>104.92</ele>
        <time>2012-08-26T07:42:23Z</time>
      </trkpt>
      <trkpt lat="44.14979" lon="0.57661">
        <ele>107.81</ele>
        <time>2012-08-26T07:42:25Z</time>
      </trkpt>
      <trkpt lat="44.15004" lon="0.57751">
        <ele>101.56</ele>
        <time>2012-08-26T07:42:38Z</time>
      </trkpt>
      <trkpt lat="44.15005" lon="0.5785">
        <ele>99.63</ele>
        <time>2012-08-26T07:42:53Z</time>
      </trkpt>
      <trkpt lat="44.15006" lon="0.57857">
        <ele>99.15</ele>
        <time>2012-08-26T07:42:54Z</time>
      </trkpt>
      <trkpt lat="44.15054" lon="0.57903">
        <ele>98.19</ele>
        <time>2012-08-26T07:43:06Z</time>
      </trkpt>
      <trkpt lat="44.15221" lon="0.57954">
        <ele>92.9</ele>
        <time>2012-08-26T07:43:55Z</time>
      </trkpt>
      <trkpt lat="44.15496" lon="0.57822">
        <ele>88.58</ele>
        <time>2012-08-26T07:45:05Z</time>
      </trkpt>
      <trkpt lat="44.1554" lon="0.578">
        <ele>87.62</ele>
        <time>2012-08-26T07:45:15Z</time>
      </trkpt>
      <trkpt lat="44.15572" lon="0.57819">
        <ele>88.58</ele>
        <time>2012-08-26T07:45:27Z</time>
      </trkpt>
      <trkpt lat="44.1576" lon="0.57693">
        <ele>84.73</ele>
        <time>2012-08-26T07:46:06Z</time>
      </trkpt>
      <trkpt lat="44.15795" lon="0.57675">
        <ele>82.81</ele>
        <time>2012-08-26T07:46:13Z</time>
      </trkpt>
      <trkpt lat="44.15943" lon="0.57746">
        <ele>83.77</ele>
        <time>2012-08-26T07:46:48Z</time>
      </trkpt>
      <trkpt lat="44.16038" lon="0.57788">
        <ele>79.93</ele>
        <time>2012-08-26T07:47:07Z</time>
      </trkpt>
      <trkpt lat="44.16193" lon="0.57889">
        <ele>79.45</ele>
        <time>2012-08-26T07:47:50Z</time>
      </trkpt>
      <trkpt lat="44.16191" lon="0.57892">
        <ele>79.93</ele>
        <time>2012-08-26T07:47:52Z</time>
      </trkpt>
      <trkpt lat="44.1619" lon="0.57896">
        <ele>79.93</ele>
        <time>2012-08-26T07:48:08Z</time>
      </trkpt>
      <trkpt lat="44.16191" lon="0.57896">
        <ele>80.89</ele>
        <time>2012-08-26T07:48:22Z</time>
      </trkpt>
      <trkpt lat="44.16288" lon="0.57968">
        <ele>78</ele>
        <time>2012-08-26T07:49:43Z</time>
      </trkpt>
      <trkpt lat="44.16249" lon="0.58219">
        <ele>90.02</ele>
        <time>2012-08-26T07:51:02Z</time>
      </trkpt>
      <trkpt lat="44.16258" lon="0.58241">
        <ele>87.62</ele>
        <time>2012-08-26T07:51:12Z</time>
      </trkpt>
      <trkpt lat="44.16246" lon="0.58364">
        <ele>88.58</ele>
        <time>2012-08-26T07:51:51Z</time>
      </trkpt>
      <trkpt lat="44.16232" lon="0.58379">
        <ele>91.94</ele>
        <time>2012-08-26T07:52:15Z</time>
      </trkpt>
      <trkpt lat="44.16232" lon="0.58363">
        <ele>92.9</ele>
        <time>2012-08-26T07:52:33Z</time>
      </trkpt>
      <trkpt lat="44.16224" lon="0.58342">
        <ele>96.27</ele>
        <time>2012-08-26T07:53:00Z</time>
      </trkpt>
      <trkpt lat="44.16219" lon="0.58329">
        <ele>96.75</ele>
        <time>2012-08-26T07:53:09Z</time>
      </trkpt>
      <trkpt lat="44.16198" lon="0.58364">
        <ele>102.04</ele>
        <time>2012-08-26T07:53:47Z</time>
      </trkpt>
      <trkpt lat="44.1619" lon="0.58359">
        <ele>104.44</ele>
        <time>2012-08-26T07:53:59Z</time>
      </trkpt>
      <trkpt lat="44.16158" lon="0.5826">
        <ele>116.94</ele>
        <time>2012-08-26T07:55:23Z</time>
      </trkpt>
      <trkpt lat="44.16128" lon="0.5823">
        <ele>112.13</ele>
        <time>2012-08-26T07:55:42Z</time>
      </trkpt>
      <trkpt lat="44.16085" lon="0.58233">
        <ele>118.86</ele>
        <time>2012-08-26T07:56:30Z</time>
      </trkpt>
      <trkpt lat="44.16039" lon="0.58243">
        <ele>117.42</ele>
        <time>2012-08-26T07:57:01Z</time>
      </trkpt>
      <trkpt lat="44.1602" lon="0.58285">
        <ele>121.26</ele>
        <time>2012-08-26T07:57:27Z</time>
      </trkpt>
      <trkpt lat="44.15989" lon="0.58325">
        <ele>113.09</ele>
        <time>2012-08-26T07:58:44Z</time>
      </trkpt>
      <trkpt lat="44.15952" lon="0.58339">
        <ele>112.61</ele>
        <time>2012-08-26T07:59:06Z</time>
      </trkpt>
      <trkpt lat="44.15947" lon="0.58338">
        <ele>111.65</ele>
        <time>2012-08-26T07:59:08Z</time>
      </trkpt>
      <trkpt lat="44.15905" lon="0.58377">
        <ele>111.65</ele>
        <time>2012-08-26T07:59:31Z</time>
      </trkpt>
      <trkpt lat="44.15878" lon="0.58333">
        <ele>102.04</ele>
        <time>2012-08-26T07:59:50Z</time>
      </trkpt>
      <trkpt lat="44.15841" lon="0.58305">
        <ele>95.31</ele>
        <time>2012-08-26T08:00:17Z</time>
      </trkpt>
      <trkpt lat="44.15821" lon="0.58333">
        <ele>96.75</ele>
        <time>2012-08-26T08:00:33Z</time>
      </trkpt>
      <trkpt lat="44.15801" lon="0.58335">
        <ele>95.79</ele>
        <time>2012-08-26T08:00:41Z</time>
      </trkpt>
      <trkpt lat="44.15794" lon="0.58325">
        <ele>94.35</ele>
        <time>2012-08-26T08:00:44Z</time>
      </trkpt>
      <trkpt lat="44.15697" lon="0.58234">
        <ele>108.77</ele>
        <time>2012-08-26T08:02:34Z</time>
      </trkpt>
      <trkpt lat="44.15671" lon="0.58271">
        <ele>111.17</ele>
        <time>2012-08-26T08:02:58Z</time>
      </trkpt>
      <trkpt lat="44.15692" lon="0.58301">
        <ele>105.88</ele>
        <time>2012-08-26T08:03:17Z</time>
      </trkpt>
      <trkpt lat="44.15711" lon="0.58323">
        <ele>106.36</ele>
        <time>2012-08-26T08:03:28Z</time>
      </trkpt>
      <trkpt lat="44.15678" lon="0.5837">
        <ele>113.09</ele>
        <time>2012-08-26T08:04:04Z</time>
      </trkpt>
      <trkpt lat="44.15663" lon="0.58371">
        <ele>116.46</ele>
        <time>2012-08-26T08:04:19Z</time>
      </trkpt>
      <trkpt lat="44.15637" lon="0.58349">
        <ele>117.42</ele>
        <time>2012-08-26T08:04:37Z</time>
      </trkpt>
      <trkpt lat="44.15609" lon="0.58367">
        <ele>119.34</ele>
        <time>2012-08-26T08:04:53Z</time>
      </trkpt>
      <trkpt lat="44.15603" lon="0.58419">
        <ele>122.71</ele>
        <time>2012-08-26T08:05:18Z</time>
      </trkpt>
      <trkpt lat="44.15614" lon="0.58449">
        <ele>119.34</ele>
        <time>2012-08-26T08:05:33Z</time>
      </trkpt>
      <trkpt lat="44.15625" lon="0.58478">
        <ele>113.09</ele>
        <time>2012-08-26T08:05:43Z</time>
      </trkpt>
      <trkpt lat="44.15624" lon="0.5855">
        <ele>107.32</ele>
        <time>2012-08-26T08:06:43Z</time>
      </trkpt>
      <trkpt lat="44.15638" lon="0.58564">
        <ele>103.96</ele>
        <time>2012-08-26T08:06:53Z</time>
      </trkpt>
      <trkpt lat="44.15663" lon="0.58548">
        <ele>102.04</ele>
        <time>2012-08-26T08:07:13Z</time>
      </trkpt>
      <trkpt lat="44.15709" lon="0.58597">
        <ele>109.73</ele>
        <time>2012-08-26T08:07:56Z</time>
      </trkpt>
      <trkpt lat="44.1576" lon="0.58609">
        <ele>117.9</ele>
        <time>2012-08-26T08:09:15Z</time>
      </trkpt>
      <trkpt lat="44.15826" lon="0.58685">
        <ele>127.99</ele>
        <time>2012-08-26T08:10:19Z</time>
      </trkpt>
      <trkpt lat="44.15854" lon="0.58715">
        <ele>130.88</ele>
        <time>2012-08-26T08:10:43Z</time>
      </trkpt>
      <trkpt lat="44.15918" lon="0.58733">
        <ele>134.24</ele>
        <time>2012-08-26T08:11:25Z</time>
      </trkpt>
      <trkpt lat="44.15856" lon="0.58871">
        <ele>137.13</ele>
        <time>2012-08-26T08:12:15Z</time>
      </trkpt>
      <trkpt lat="44.15759" lon="0.59023">
        <ele>134.24</ele>
        <time>2012-08-26T08:12:48Z</time>
      </trkpt>
      <trkpt lat="44.1566" lon="0.59113">
        <ele>136.64</ele>
        <time>2012-08-26T08:13:11Z</time>
      </trkpt>
      <trkpt lat="44.15607" lon="0.59135">
        <ele>137.61</ele>
        <time>2012-08-26T08:13:25Z</time>
      </trkpt>
      <trkpt lat="44.15554" lon="0.59173">
        <ele>135.68</ele>
        <time>2012-08-26T08:13:39Z</time>
      </trkpt>
      <trkpt lat="44.15645" lon="0.59215">
        <ele>131.84</ele>
        <time>2012-08-26T08:14:04Z</time>
      </trkpt>
      <trkpt lat="44.15821" lon="0.59369">
        <ele>128.95</ele>
        <time>2012-08-26T08:14:45Z</time>
      </trkpt>
      <trkpt lat="44.15867" lon="0.59453">
        <ele>130.88</ele>
        <time>2012-08-26T08:15:06Z</time>
      </trkpt>
      <trkpt lat="44.15889" lon="0.5949">
        <ele>132.32</ele>
        <time>2012-08-26T08:15:27Z</time>
      </trkpt>
      <trkpt lat="44.15922" lon="0.59469">
        <ele>129.43</ele>
        <time>2012-08-26T08:15:45Z</time>
      </trkpt>
      <trkpt lat="44.15923" lon="0.59437">
        <ele>131.36</ele>
        <time>2012-08-26T08:15:56Z</time>
      </trkpt>
      <trkpt lat="44.15947" lon="0.59425">
        <ele>125.59</ele>
        <time>2012-08-26T08:16:12Z</time>
      </trkpt>
      <trkpt lat="44.15962" lon="0.59394">
        <ele>123.19</ele>
        <time>2012-08-26T08:16:35Z</time>
      </trkpt>
      <trkpt lat="44.1593" lon="0.59334">
        <ele>131.36</ele>
        <time>2012-08-26T08:17:08Z</time>
      </trkpt>
      <trkpt lat="44.15928" lon="0.59304">
        <ele>132.8</ele>
        <time>2012-08-26T08:17:20Z</time>
      </trkpt>
      <trkpt lat="44.15928" lon="0.59284">
        <ele>132.8</ele>
        <time>2012-08-26T08:17:30Z</time>
      </trkpt>
      <trkpt lat="44.16046" lon="0.5924">
        <ele>118.86</ele>
        <time>2012-08-26T08:18:43Z</time>
      </trkpt>
      <trkpt lat="44.16056" lon="0.59194">
        <ele>115.5</ele>
        <time>2012-08-26T08:18:59Z</time>
      </trkpt>
      <trkpt lat="44.16069" lon="0.59174">
        <ele>108.29</ele>
        <time>2012-08-26T08:19:08Z</time>
      </trkpt>
      <trkpt lat="44.16085" lon="0.59174">
        <ele>103.48</ele>
        <time>2012-08-26T08:19:13Z</time>
      </trkpt>
      <trkpt lat="44.16104" lon="0.59182">
        <ele>99.63</ele>
        <time>2012-08-26T08:19:17Z</time>
      </trkpt>
      <trkpt lat="44.16127" lon="0.59149">
        <ele>96.27</ele>
        <time>2012-08-26T08:19:27Z</time>
      </trkpt>
      <trkpt lat="44.16153" lon="0.59148">
        <ele>92.42</ele>
        <time>2012-08-26T08:19:35Z</time>
      </trkpt>
      <trkpt lat="44.1616" lon="0.59147">
        <ele>90.98</ele>
        <time>2012-08-26T08:19:39Z</time>
      </trkpt>
      <trkpt lat="44.16171" lon="0.59311">
        <ele>94.35</ele>
        <time>2012-08-26T08:20:35Z</time>
      </trkpt>
      <trkpt lat="44.16159" lon="0.59404">
        <ele>92.42</ele>
        <time>2012-08-26T08:20:51Z</time>
      </trkpt>
      <trkpt lat="44.16147" lon="0.59465">
        <ele>93.39</ele>
        <time>2012-08-26T08:21:01Z</time>
      </trkpt>
      <trkpt lat="44.16166" lon="0.59493">
        <ele>90.98</ele>
        <time>2012-08-26T08:21:09Z</time>
      </trkpt>
      <trkpt lat="44.16178" lon="0.59498">
        <ele>90.5</ele>
        <time>2012-08-26T08:21:11Z</time>
      </trkpt>
      <trkpt lat="44.16208" lon="0.59516">
        <ele>87.62</ele>
        <time>2012-08-26T08:21:16Z</time>
      </trkpt>
      <trkpt lat="44.16219" lon="0.59529">
        <ele>87.14</ele>
        <time>2012-08-26T08:21:18Z</time>
      </trkpt>
      <trkpt lat="44.16229" lon="0.59546">
        <ele>86.18</ele>
        <time>2012-08-26T08:21:20Z</time>
      </trkpt>
      <trkpt lat="44.16237" lon="0.59565">
        <ele>85.21</ele>
        <time>2012-08-26T08:21:22Z</time>
      </trkpt>
      <trkpt lat="44.16249" lon="0.5958">
        <ele>83.77</ele>
        <time>2012-08-26T08:21:24Z</time>
      </trkpt>
      <trkpt lat="44.16265" lon="0.5959">
        <ele>81.85</ele>
        <time>2012-08-26T08:21:26Z</time>
      </trkpt>
      <trkpt lat="44.1632" lon="0.59619">
        <ele>78.48</ele>
        <time>2012-08-26T08:21:33Z</time>
      </trkpt>
      <trkpt lat="44.16319" lon="0.59638">
        <ele>79.45</ele>
        <time>2012-08-26T08:21:35Z</time>
      </trkpt>
      <trkpt lat="44.16257" lon="0.59916">
        <ele>82.33</ele>
        <time>2012-08-26T08:22:18Z</time>
      </trkpt>
      <trkpt lat="44.162" lon="0.60071">
        <ele>83.77</ele>
        <time>2012-08-26T08:22:47Z</time>
      </trkpt>
      <trkpt lat="44.16173" lon="0.60132">
        <ele>83.29</ele>
        <time>2012-08-26T08:22:57Z</time>
      </trkpt>
      <trkpt lat="44.16152" lon="0.60153">
        <ele>83.77</ele>
        <time>2012-08-26T08:23:02Z</time>
      </trkpt>
      <trkpt lat="44.16106" lon="0.60213">
        <ele>82.33</ele>
        <time>2012-08-26T08:23:14Z</time>
      </trkpt>
      <trkpt lat="44.16102" lon="0.6023">
        <ele>82.33</ele>
        <time>2012-08-26T08:23:16Z</time>
      </trkpt>
      <trkpt lat="44.161" lon="0.60248">
        <ele>81.85</ele>
        <time>2012-08-26T08:23:18Z</time>
      </trkpt>
      <trkpt lat="44.16117" lon="0.60332">
        <ele>79.45</ele>
        <time>2012-08-26T08:23:27Z</time>
      </trkpt>
      <trkpt lat="44.16181" lon="0.60423">
        <ele>76.08</ele>
        <time>2012-08-26T08:23:39Z</time>
      </trkpt>
      <trkpt lat="44.16189" lon="0.60464">
        <ele>75.6</ele>
        <time>2012-08-26T08:23:43Z</time>
      </trkpt>
      <trkpt lat="44.16189" lon="0.60475">
        <ele>75.12</ele>
        <time>2012-08-26T08:23:44Z</time>
      </trkpt>
      <trkpt lat="44.16161" lon="0.60527">
        <ele>74.64</ele>
        <time>2012-08-26T08:23:50Z</time>
      </trkpt>
      <trkpt lat="44.16032" lon="0.60633">
        <ele>73.68</ele>
        <time>2012-08-26T08:24:13Z</time>
      </trkpt>
      <trkpt lat="44.16033" lon="0.60701">
        <ele>70.31</ele>
        <time>2012-08-26T08:24:21Z</time>
      </trkpt>
      <trkpt lat="44.1606" lon="0.60812">
        <ele>65.99</ele>
        <time>2012-08-26T08:24:32Z</time>
      </trkpt>
      <trkpt lat="44.16122" lon="0.6088">
        <ele>65.51</ele>
        <time>2012-08-26T08:24:42Z</time>
      </trkpt>
      <trkpt lat="44.16248" lon="0.60911">
        <ele>69.83</ele>
        <time>2012-08-26T08:25:07Z</time>
      </trkpt>
      <trkpt lat="44.16492" lon="0.60967">
        <ele>66.47</ele>
        <time>2012-08-26T08:25:56Z</time>
      </trkpt>
      <trkpt lat="44.16509" lon="0.61044">
        <ele>65.99</ele>
        <time>2012-08-26T08:26:11Z</time>
      </trkpt>
      <trkpt lat="44.16521" lon="0.61064">
        <ele>65.51</ele>
        <time>2012-08-26T08:26:30Z</time>
      </trkpt>
      <trkpt lat="44.16937" lon="0.60919">
        <ele>64.07</ele>
        <time>2012-08-26T08:28:10Z</time>
      </trkpt>
      <trkpt lat="44.16941" lon="0.60921">
        <ele>63.58</ele>
        <time>2012-08-26T08:28:11Z</time>
      </trkpt>
      <trkpt lat="44.16981" lon="0.60944">
        <ele>63.58</ele>
        <time>2012-08-26T08:28:23Z</time>
      </trkpt>
      <trkpt lat="44.17033" lon="0.61055">
        <ele>63.58</ele>
        <time>2012-08-26T08:28:48Z</time>
      </trkpt>
      <trkpt lat="44.17061" lon="0.61137">
        <ele>62.62</ele>
        <time>2012-08-26T08:29:04Z</time>
      </trkpt>
      <trkpt lat="44.17106" lon="0.61279">
        <ele>62.62</ele>
        <time>2012-08-26T08:29:33Z</time>
      </trkpt>
      <trkpt lat="44.1711" lon="0.61282">
        <ele>62.62</ele>
        <time>2012-08-26T08:29:35Z</time>
      </trkpt>
      <trkpt lat="44.17116" lon="0.61291">
        <ele>60.22</ele>
        <time>2012-08-26T08:29:39Z</time>
      </trkpt>
      <trkpt lat="44.17123" lon="0.61298">
        <ele>60.7</ele>
        <time>2012-08-26T08:30:13Z</time>
      </trkpt>
      <trkpt lat="44.17194" lon="0.61682">
        <ele>51.57</ele>
        <time>2012-08-26T08:31:19Z</time>
      </trkpt>
      <trkpt lat="44.17226" lon="0.61779">
        <ele>49.16</ele>
        <time>2012-08-26T08:31:35Z</time>
      </trkpt>
      <trkpt lat="44.17291" lon="0.61851">
        <ele>47.24</ele>
        <time>2012-08-26T08:31:50Z</time>
      </trkpt>
      <trkpt lat="44.17395" lon="0.6187">
        <ele>48.2</ele>
        <time>2012-08-26T08:32:11Z</time>
      </trkpt>
      <trkpt lat="44.17449" lon="0.61842">
        <ele>47.24</ele>
        <time>2012-08-26T08:32:26Z</time>
      </trkpt>
      <trkpt lat="44.17474" lon="0.61815">
        <ele>48.2</ele>
        <time>2012-08-26T08:32:36Z</time>
      </trkpt>
      <trkpt lat="44.17481" lon="0.61742">
        <ele>46.76</ele>
        <time>2012-08-26T08:32:55Z</time>
      </trkpt>
      <trkpt lat="44.17439" lon="0.61608">
        <ele>46.28</ele>
        <time>2012-08-26T08:33:25Z</time>
      </trkpt>
      <trkpt lat="44.17477" lon="0.61591">
        <ele>45.8</ele>
        <time>2012-08-26T08:33:36Z</time>
      </trkpt>
      <trkpt lat="44.17604" lon="0.61598">
        <ele>45.8</ele>
        <time>2012-08-26T08:34:05Z</time>
      </trkpt>
      <trkpt lat="44.17765" lon="0.61568">
        <ele>45.8</ele>
        <time>2012-08-26T08:34:39Z</time>
      </trkpt>
      <trkpt lat="44.17843" lon="0.61554">
        <ele>44.36</ele>
        <time>2012-08-26T08:34:54Z</time>
      </trkpt>
      <trkpt lat="44.18352" lon="0.61391">
        <ele>42.92</ele>
        <time>2012-08-26T08:36:49Z</time>
      </trkpt>
      <trkpt lat="44.18948" lon="0.61266">
        <ele>43.4</ele>
        <time>2012-08-26T08:39:09Z</time>
      </trkpt>
      <trkpt lat="44.19023" lon="0.61271">
        <ele>46.28</ele>
        <time>2012-08-26T08:39:33Z</time>
      </trkpt>
      <trkpt lat="44.19019" lon="0.61295">
        <ele>47.72</ele>
        <time>2012-08-26T08:39:44Z</time>
      </trkpt>
      <trkpt lat="44.19002" lon="0.6133">
        <ele>46.76</ele>
        <time>2012-08-26T08:39:55Z</time>
      </trkpt>
      <trkpt lat="44.18895" lon="0.61335">
        <ele>46.76</ele>
        <time>2012-08-26T08:40:22Z</time>
      </trkpt>
      <trkpt lat="44.18874" lon="0.61343">
        <ele>46.28</ele>
        <time>2012-08-26T08:40:28Z</time>
      </trkpt>
      <trkpt lat="44.18869" lon="0.61438">
        <ele>46.28</ele>
        <time>2012-08-26T08:40:47Z</time>
      </trkpt>
      <trkpt lat="44.18833" lon="0.61452">
        <ele>47.24</ele>
        <time>2012-08-26T08:40:58Z</time>
      </trkpt>
      <trkpt lat="44.18841" lon="0.61456">
        <ele>46.76</ele>
        <time>2012-08-26T08:41:14Z</time>
      </trkpt>
      <trkpt lat="44.18842" lon="0.61455">
        <ele>47.72</ele>
        <time>2012-08-26T08:42:03Z</time>
      </trkpt>
    </trkseg>
  </trk>
</gpx>